Terminal Aerodrome Forecast
Issued by NWS Mt. Holly, NJ

Home | Current Version | Previous Version | Text Only | Print | Product List | Glossary On
Versions: 1 2 3 4 5 6 7 8 9 10 11 12 13 14 15 16 17 18 19 20 21 22 23 24
803
FTUS41 KPHI 222353
TAFTTN
TAF
KTTN 222353Z 2300/2324 07008KT P6SM OVC012
     FM230400 07006KT P6SM OVC008
     FM231300 09006KT 2SM -RA BR OVC005
     FM232100 VRB03KT 2SM -RA BR OVC005=

USA.gov is the U.S. government's official web portal to all federal, state and local government web resources and services.